sensor_id;sensor_type;location;lat;lon;timestamp;P1;durP1;ratioP1;P2;durP2;ratioP2
1479;SDS011;732;51.698;4.886;2023-03-03T00:01:06;102.23;;;40.40;;
1479;SDS011;732;51.698;4.886;2023-03-03T00:03:34;120.27;;;43.90;;
1479;SDS011;732;51.698;4.886;2023-03-03T00:06:03;125.00;;;44.53;;
1479;SDS011;732;51.698;4.886;2023-03-03T00:08:35;106.13;;;39.40;;
1479;SDS011;732;51.698;4.886;2023-03-03T00:11:05;113.73;;;43.50;;
1479;SDS011;732;51.698;4.886;2023-03-03T00:13:37;114.57;;;43.70;;
1479;SDS011;732;51.698;4.886;2023-03-03T00:16:15;103.03;;;42.77;;
1479;SDS011;732;51.698;4.886;2023-03-03T00:18:49;99.50;;;39.40;;
1479;SDS011;732;51.698;4.886;2023-03-03T00:21:22;110.77;;;41.87;;
1479;SDS011;732;51.698;4.886;2023-03-03T00:26:51;112.57;;;43.40;;
1479;SDS011;732;51.698;4.886;2023-03-03T00:29:28;120.93;;;43.87;;
1479;SDS011;732;51.698;4.886;2023-03-03T00:32:15;116.13;;;43.80;;
1479;SDS011;732;51.698;4.886;2023-03-03T00:34:50;109.47;;;41.57;;
1479;SDS011;732;51.698;4.886;2023-03-03T00:37:27;113.43;;;41.67;;
1479;SDS011;732;51.698;4.886;2023-03-03T00:40:12;109.00;;;41.03;;
1479;SDS011;732;51.698;4.886;2023-03-03T00:42:51;103.50;;;41.80;;
1479;SDS011;732;51.698;4.886;2023-03-03T00:45:26;108.93;;;40.87;;
1479;SDS011;732;51.698;4.886;2023-03-03T00:47:58;109.83;;;40.80;;
1479;SDS011;732;51.698;4.886;2023-03-03T00:50:44;108.60;;;42.27;;
1479;SDS011;732;51.698;4.886;2023-03-03T00:53:13;108.47;;;42.43;;
1479;SDS011;732;51.698;4.886;2023-03-03T00:55:43;117.50;;;42.87;;
1479;SDS011;732;51.698;4.886;2023-03-03T00:58:15;99.30;;;40.13;;
1479;SDS011;732;51.698;4.886;2023-03-03T01:00:47;99.73;;;38.87;;
1479;SDS011;732;51.698;4.886;2023-03-03T01:03:20;96.63;;;40.23;;
1479;SDS011;732;51.698;4.886;2023-03-03T01:05:51;101.17;;;41.10;;
1479;SDS011;732;51.698;4.886;2023-03-03T01:08:20;105.83;;;40.70;;
1479;SDS011;732;51.698;4.886;2023-03-03T01:10:50;93.93;;;40.53;;
1479;SDS011;732;51.698;4.886;2023-03-03T01:13:22;105.33;;;40.27;;
1479;SDS011;732;51.698;4.886;2023-03-03T01:15:54;95.00;;;38.67;;
1479;SDS011;732;51.698;4.886;2023-03-03T01:18:22;98.47;;;39.50;;
1479;SDS011;732;51.698;4.886;2023-03-03T01:20:51;85.67;;;35.07;;
1479;SDS011;732;51.698;4.886;2023-03-03T01:23:21;91.87;;;37.50;;
1479;SDS011;732;51.698;4.886;2023-03-03T01:25:49;74.80;;;34.60;;
1479;SDS011;732;51.698;4.886;2023-03-03T01:28:18;81.53;;;35.97;;
1479;SDS011;732;51.698;4.886;2023-03-03T01:30:48;77.67;;;34.60;;
1479;SDS011;732;51.698;4.886;2023-03-03T01:33:16;74.67;;;34.10;;
1479;SDS011;732;51.698;4.886;2023-03-03T01:35:46;78.70;;;35.40;;
1479;SDS011;732;51.698;4.886;2023-03-03T01:38:14;81.27;;;35.20;;
1479;SDS011;732;51.698;4.886;2023-03-03T01:40:50;72.30;;;33.47;;
1479;SDS011;732;51.698;4.886;2023-03-03T01:43:20;69.57;;;32.20;;
1479;SDS011;732;51.698;4.886;2023-03-03T01:49:05;72.27;;;32.77;;
1479;SDS011;732;51.698;4.886;2023-03-03T01:51:41;73.43;;;34.03;;
1479;SDS011;732;51.698;4.886;2023-03-03T01:54:20;70.20;;;33.00;;
1479;SDS011;732;51.698;4.886;2023-03-03T01:56:54;79.70;;;35.97;;
1479;SDS011;732;51.698;4.886;2023-03-03T01:59:27;70.90;;;32.30;;
1479;SDS011;732;51.698;4.886;2023-03-03T02:02:02;61.47;;;29.67;;
1479;SDS011;732;51.698;4.886;2023-03-03T02:04:31;68.17;;;33.70;;
1479;SDS011;732;51.698;4.886;2023-03-03T02:07:04;55.50;;;28.80;;
1479;SDS011;732;51.698;4.886;2023-03-03T02:09:40;63.50;;;31.53;;
1479;SDS011;732;51.698;4.886;2023-03-03T02:12:17;61.00;;;31.20;;
1479;SDS011;732;51.698;4.886;2023-03-03T02:14:49;64.80;;;32.23;;
1479;SDS011;732;51.698;4.886;2023-03-03T02:17:19;60.60;;;31.57;;
1479;SDS011;732;51.698;4.886;2023-03-03T02:19:51;66.53;;;31.83;;
1479;SDS011;732;51.698;4.886;2023-03-03T02:22:31;66.30;;;33.80;;
1479;SDS011;732;51.698;4.886;2023-03-03T02:25:07;60.83;;;31.40;;
1479;SDS011;732;51.698;4.886;2023-03-03T02:27:46;63.17;;;33.27;;
1479;SDS011;732;51.698;4.886;2023-03-03T02:30:15;67.17;;;34.57;;
1479;SDS011;732;51.698;4.886;2023-03-03T02:32:50;72.47;;;34.10;;
1479;SDS011;732;51.698;4.886;2023-03-03T02:35:25;67.77;;;33.37;;
1479;SDS011;732;51.698;4.886;2023-03-03T02:38:02;69.80;;;34.10;;
1479;SDS011;732;51.698;4.886;2023-03-03T02:40:41;76.70;;;35.73;;
1479;SDS011;732;51.698;4.886;2023-03-03T02:43:15;78.30;;;35.43;;
1479;SDS011;732;51.698;4.886;2023-03-03T02:45:46;77.57;;;33.50;;
1479;SDS011;732;51.698;4.886;2023-03-03T02:48:14;67.47;;;32.37;;
1479;SDS011;732;51.698;4.886;2023-03-03T02:50:43;66.87;;;31.70;;
1479;SDS011;732;51.698;4.886;2023-03-03T02:53:11;81.23;;;35.40;;
1479;SDS011;732;51.698;4.886;2023-03-03T02:55:40;76.53;;;34.70;;
1479;SDS011;732;51.698;4.886;2023-03-03T02:58:08;78.30;;;35.70;;
1479;SDS011;732;51.698;4.886;2023-03-03T03:00:38;70.60;;;34.50;;
1479;SDS011;732;51.698;4.886;2023-03-03T03:03:06;69.83;;;32.73;;
1479;SDS011;732;51.698;4.886;2023-03-03T03:05:37;58.60;;;29.17;;
1479;SDS011;732;51.698;4.886;2023-03-03T03:08:05;62.23;;;27.97;;
1479;SDS011;732;51.698;4.886;2023-03-03T03:10:34;63.40;;;27.60;;
1479;SDS011;732;51.698;4.886;2023-03-03T03:13:03;56.87;;;28.07;;
1479;SDS011;732;51.698;4.886;2023-03-03T03:15:33;60.50;;;28.47;;
1479;SDS011;732;51.698;4.886;2023-03-03T03:18:03;54.80;;;26.37;;
1479;SDS011;732;51.698;4.886;2023-03-03T03:20:34;58.97;;;28.50;;
1479;SDS011;732;51.698;4.886;2023-03-03T03:23:05;56.17;;;28.03;;
1479;SDS011;732;51.698;4.886;2023-03-03T03:25:34;64.30;;;26.80;;
1479;SDS011;732;51.698;4.886;2023-03-03T03:28:08;62.63;;;27.90;;
1479;SDS011;732;51.698;4.886;2023-03-03T03:30:36;59.23;;;27.10;;
1479;SDS011;732;51.698;4.886;2023-03-03T03:33:07;63.07;;;28.37;;
1479;SDS011;732;51.698;4.886;2023-03-03T03:35:36;67.33;;;28.00;;
1479;SDS011;732;51.698;4.886;2023-03-03T03:38:12;70.80;;;27.10;;
1479;SDS011;732;51.698;4.886;2023-03-03T03:40:41;74.03;;;27.37;;
1479;SDS011;732;51.698;4.886;2023-03-03T03:43:10;63.33;;;26.00;;
1479;SDS011;732;51.698;4.886;2023-03-03T03:45:40;68.00;;;26.90;;
1479;SDS011;732;51.698;4.886;2023-03-03T03:48:12;64.70;;;24.70;;
1479;SDS011;732;51.698;4.886;2023-03-03T03:50:42;68.03;;;26.57;;
1479;SDS011;732;51.698;4.886;2023-03-03T03:53:11;64.17;;;29.53;;
1479;SDS011;732;51.698;4.886;2023-03-03T03:55:39;71.00;;;26.60;;
1479;SDS011;732;51.698;4.886;2023-03-03T03:58:08;63.00;;;25.60;;
1479;SDS011;732;51.698;4.886;2023-03-03T04:00:40;70.50;;;29.80;;
1479;SDS011;732;51.698;4.886;2023-03-03T04:03:10;67.03;;;28.23;;
1479;SDS011;732;51.698;4.886;2023-03-03T04:05:42;64.70;;;27.13;;
1479;SDS011;732;51.698;4.886;2023-03-03T04:08:11;63.00;;;26.90;;
1479;SDS011;732;51.698;4.886;2023-03-03T04:10:41;54.80;;;24.63;;
1479;SDS011;732;51.698;4.886;2023-03-03T04:13:10;58.50;;;25.10;;
1479;SDS011;732;51.698;4.886;2023-03-03T04:15:38;49.00;;;22.00;;
1479;SDS011;732;51.698;4.886;2023-03-03T04:18:06;52.47;;;24.17;;
1479;SDS011;732;51.698;4.886;2023-03-03T04:20:35;51.57;;;24.13;;
1479;SDS011;732;51.698;4.886;2023-03-03T04:23:05;58.07;;;24.40;;
1479;SDS011;732;51.698;4.886;2023-03-03T04:25:34;51.80;;;23.53;;
1479;SDS011;732;51.698;4.886;2023-03-03T04:28:11;50.20;;;23.67;;
1479;SDS011;732;51.698;4.886;2023-03-03T04:30:39;54.80;;;23.20;;
1479;SDS011;732;51.698;4.886;2023-03-03T04:33:08;50.37;;;22.20;;
1479;SDS011;732;51.698;4.886;2023-03-03T04:35:38;50.90;;;22.13;;
1479;SDS011;732;51.698;4.886;2023-03-03T04:38:08;48.53;;;23.03;;
1479;SDS011;732;51.698;4.886;2023-03-03T04:40:38;52.77;;;23.30;;
1479;SDS011;732;51.698;4.886;2023-03-03T04:43:10;48.80;;;22.07;;
1479;SDS011;732;51.698;4.886;2023-03-03T04:45:38;50.20;;;20.63;;
1479;SDS011;732;51.698;4.886;2023-03-03T04:48:07;43.23;;;20.93;;
1479;SDS011;732;51.698;4.886;2023-03-03T04:50:36;50.23;;;23.57;;
1479;SDS011;732;51.698;4.886;2023-03-03T04:53:04;43.87;;;20.47;;
1479;SDS011;732;51.698;4.886;2023-03-03T04:55:35;48.40;;;22.63;;
1479;SDS011;732;51.698;4.886;2023-03-03T04:58:05;40.23;;;20.30;;
1479;SDS011;732;51.698;4.886;2023-03-03T05:00:35;45.80;;;21.30;;
1479;SDS011;732;51.698;4.886;2023-03-03T05:03:06;46.37;;;20.90;;
1479;SDS011;732;51.698;4.886;2023-03-03T05:05:38;51.47;;;23.50;;
1479;SDS011;732;51.698;4.886;2023-03-03T05:08:07;45.80;;;21.93;;
1479;SDS011;732;51.698;4.886;2023-03-03T05:10:37;49.03;;;22.53;;
1479;SDS011;732;51.698;4.886;2023-03-03T05:13:06;50.90;;;23.73;;
1479;SDS011;732;51.698;4.886;2023-03-03T05:15:35;48.93;;;23.00;;
1479;SDS011;732;51.698;4.886;2023-03-03T05:18:03;55.00;;;23.20;;
1479;SDS011;732;51.698;4.886;2023-03-03T05:20:32;53.47;;;22.30;;
1479;SDS011;732;51.698;4.886;2023-03-03T05:23:00;44.20;;;21.33;;
1479;SDS011;732;51.698;4.886;2023-03-03T05:25:28;42.23;;;20.20;;
1479;SDS011;732;51.698;4.886;2023-03-03T05:27:58;42.90;;;20.43;;
1479;SDS011;732;51.698;4.886;2023-03-03T05:30:26;48.60;;;20.80;;
1479;SDS011;732;51.698;4.886;2023-03-03T05:32:55;43.10;;;20.27;;
1479;SDS011;732;51.698;4.886;2023-03-03T05:35:24;51.93;;;22.57;;
1479;SDS011;732;51.698;4.886;2023-03-03T05:37:53;51.17;;;22.07;;
1479;SDS011;732;51.698;4.886;2023-03-03T05:40:23;50.07;;;22.27;;
1479;SDS011;732;51.698;4.886;2023-03-03T05:42:52;48.33;;;23.47;;
1479;SDS011;732;51.698;4.886;2023-03-03T05:45:22;51.20;;;23.50;;
1479;SDS011;732;51.698;4.886;2023-03-03T05:47:51;54.33;;;23.50;;
1479;SDS011;732;51.698;4.886;2023-03-03T05:50:20;48.80;;;22.53;;
1479;SDS011;732;51.698;4.886;2023-03-03T05:52:50;46.40;;;19.90;;
1479;SDS011;732;51.698;4.886;2023-03-03T05:55:19;49.00;;;18.37;;
1479;SDS011;732;51.698;4.886;2023-03-03T05:57:47;45.00;;;18.20;;
1479;SDS011;732;51.698;4.886;2023-03-03T06:00:16;39.93;;;18.47;;
1479;SDS011;732;51.698;4.886;2023-03-03T06:02:47;37.73;;;17.70;;
1479;SDS011;732;51.698;4.886;2023-03-03T06:05:15;46.17;;;18.83;;
1479;SDS011;732;51.698;4.886;2023-03-03T06:07:43;44.70;;;18.83;;
1479;SDS011;732;51.698;4.886;2023-03-03T06:10:12;44.00;;;20.10;;
1479;SDS011;732;51.698;4.886;2023-03-03T06:12:45;48.67;;;20.90;;
1479;SDS011;732;51.698;4.886;2023-03-03T06:15:13;45.90;;;19.33;;
1479;SDS011;732;51.698;4.886;2023-03-03T06:17:42;43.70;;;18.67;;
1479;SDS011;732;51.698;4.886;2023-03-03T06:20:12;46.67;;;19.67;;
1479;SDS011;732;51.698;4.886;2023-03-03T06:22:40;43.17;;;19.30;;
1479;SDS011;732;51.698;4.886;2023-03-03T06:25:09;43.30;;;20.17;;
1479;SDS011;732;51.698;4.886;2023-03-03T06:27:37;50.30;;;20.60;;
1479;SDS011;732;51.698;4.886;2023-03-03T06:30:06;50.50;;;20.00;;
1479;SDS011;732;51.698;4.886;2023-03-03T06:32:36;42.30;;;19.70;;
1479;SDS011;732;51.698;4.886;2023-03-03T06:35:05;51.83;;;21.30;;
1479;SDS011;732;51.698;4.886;2023-03-03T06:37:35;49.83;;;22.37;;
1479;SDS011;732;51.698;4.886;2023-03-03T06:40:04;46.50;;;21.10;;
1479;SDS011;732;51.698;4.886;2023-03-03T06:42:34;54.43;;;23.23;;
1479;SDS011;732;51.698;4.886;2023-03-03T06:45:02;54.53;;;22.90;;
1479;SDS011;732;51.698;4.886;2023-03-03T06:47:31;55.17;;;22.10;;
1479;SDS011;732;51.698;4.886;2023-03-03T06:50:00;59.37;;;23.67;;
1479;SDS011;732;51.698;4.886;2023-03-03T06:52:28;57.87;;;24.40;;
1479;SDS011;732;51.698;4.886;2023-03-03T06:54:59;49.60;;;22.90;;
1479;SDS011;732;51.698;4.886;2023-03-03T06:57:36;53.50;;;23.30;;
1479;SDS011;732;51.698;4.886;2023-03-03T07:00:12;63.97;;;25.50;;
1479;SDS011;732;51.698;4.886;2023-03-03T07:02:46;58.00;;;25.47;;
1479;SDS011;732;51.698;4.886;2023-03-03T07:05:19;55.10;;;24.67;;
1479;SDS011;732;51.698;4.886;2023-03-03T07:07:50;59.53;;;24.07;;
1479;SDS011;732;51.698;4.886;2023-03-03T07:10:22;56.43;;;23.50;;
1479;SDS011;732;51.698;4.886;2023-03-03T07:12:55;59.00;;;25.27;;
1479;SDS011;732;51.698;4.886;2023-03-03T07:15:33;57.43;;;23.43;;
1479;SDS011;732;51.698;4.886;2023-03-03T07:18:02;51.83;;;21.93;;
1479;SDS011;732;51.698;4.886;2023-03-03T07:20:47;48.23;;;22.30;;
1479;SDS011;732;51.698;4.886;2023-03-03T07:23:17;53.10;;;22.10;;
1479;SDS011;732;51.698;4.886;2023-03-03T07:25:51;51.03;;;20.07;;
1479;SDS011;732;51.698;4.886;2023-03-03T07:28:22;45.60;;;18.97;;
1479;SDS011;732;51.698;4.886;2023-03-03T07:30:53;47.80;;;21.40;;
1479;SDS011;732;51.698;4.886;2023-03-03T07:33:24;45.73;;;19.60;;
1479;SDS011;732;51.698;4.886;2023-03-03T07:35:56;52.90;;;20.80;;
1479;SDS011;732;51.698;4.886;2023-03-03T07:38:29;52.17;;;21.30;;
1479;SDS011;732;51.698;4.886;2023-03-03T07:41:07;51.47;;;20.57;;
1479;SDS011;732;51.698;4.886;2023-03-03T07:43:42;49.90;;;19.90;;
1479;SDS011;732;51.698;4.886;2023-03-03T07:46:28;48.33;;;20.60;;
1479;SDS011;732;51.698;4.886;2023-03-03T07:49:01;49.03;;;20.67;;
1479;SDS011;732;51.698;4.886;2023-03-03T07:51:51;53.70;;;20.73;;
1479;SDS011;732;51.698;4.886;2023-03-03T07:54:28;45.50;;;18.77;;
1479;SDS011;732;51.698;4.886;2023-03-03T07:57:11;46.47;;;20.07;;
1479;SDS011;732;51.698;4.886;2023-03-03T07:59:48;53.80;;;20.50;;
1479;SDS011;732;51.698;4.886;2023-03-03T08:02:27;46.27;;;18.80;;
1479;SDS011;732;51.698;4.886;2023-03-03T08:05:20;46.90;;;17.70;;
1479;SDS011;732;51.698;4.886;2023-03-03T08:08:18;48.53;;;19.97;;
1479;SDS011;732;51.698;4.886;2023-03-03T08:10:56;43.43;;;18.27;;
1479;SDS011;732;51.698;4.886;2023-03-03T08:13:28;52.47;;;18.80;;
1479;SDS011;732;51.698;4.886;2023-03-03T08:16:17;45.63;;;19.70;;
1479;SDS011;732;51.698;4.886;2023-03-03T08:18:57;46.67;;;18.50;;
1479;SDS011;732;51.698;4.886;2023-03-03T08:21:30;48.70;;;19.80;;
1479;SDS011;732;51.698;4.886;2023-03-03T08:24:00;41.70;;;16.70;;
1479;SDS011;732;51.698;4.886;2023-03-03T08:26:28;42.93;;;17.90;;
1479;SDS011;732;51.698;4.886;2023-03-03T08:28:58;41.20;;;16.97;;
1479;SDS011;732;51.698;4.886;2023-03-03T08:31:26;37.87;;;15.70;;
1479;SDS011;732;51.698;4.886;2023-03-03T08:34:06;40.83;;;17.13;;
1479;SDS011;732;51.698;4.886;2023-03-03T08:36:35;36.70;;;15.00;;
1479;SDS011;732;51.698;4.886;2023-03-03T08:39:03;41.37;;;16.70;;
1479;SDS011;732;51.698;4.886;2023-03-03T08:41:32;34.23;;;15.30;;
1479;SDS011;732;51.698;4.886;2023-03-03T08:44:02;40.73;;;15.70;;
1479;SDS011;732;51.698;4.886;2023-03-03T08:46:31;37.23;;;14.23;;
1479;SDS011;732;51.698;4.886;2023-03-03T08:48:59;36.20;;;14.00;;
1479;SDS011;732;51.698;4.886;2023-03-03T08:51:28;28.20;;;12.77;;
1479;SDS011;732;51.698;4.886;2023-03-03T08:53:56;26.43;;;13.00;;
1479;SDS011;732;51.698;4.886;2023-03-03T08:56:24;44.67;;;13.30;;
1479;SDS011;732;51.698;4.886;2023-03-03T08:58:53;29.23;;;12.83;;
1479;SDS011;732;51.698;4.886;2023-03-03T09:01:30;33.77;;;14.63;;
1479;SDS011;732;51.698;4.886;2023-03-03T09:03:59;32.60;;;15.97;;
1479;SDS011;732;51.698;4.886;2023-03-03T09:06:28;33.23;;;16.10;;
1479;SDS011;732;51.698;4.886;2023-03-03T09:08:57;42.20;;;17.13;;
1479;SDS011;732;51.698;4.886;2023-03-03T09:11:26;36.33;;;15.30;;
1479;SDS011;732;51.698;4.886;2023-03-03T09:13:57;30.60;;;13.10;;
1479;SDS011;732;51.698;4.886;2023-03-03T09:16:36;26.03;;;12.23;;
1479;SDS011;732;51.698;4.886;2023-03-03T09:19:18;37.60;;;14.47;;
1479;SDS011;732;51.698;4.886;2023-03-03T09:21:51;30.83;;;13.07;;
1479;SDS011;732;51.698;4.886;2023-03-03T09:24:25;24.93;;;12.30;;
1479;SDS011;732;51.698;4.886;2023-03-03T09:26:55;26.77;;;12.43;;
1479;SDS011;732;51.698;4.886;2023-03-03T09:29:26;23.77;;;12.20;;
1479;SDS011;732;51.698;4.886;2023-03-03T09:31:57;32.80;;;13.63;;
1479;SDS011;732;51.698;4.886;2023-03-03T09:34:32;24.80;;;11.77;;
1479;SDS011;732;51.698;4.886;2023-03-03T09:37:14;27.33;;;12.60;;
1479;SDS011;732;51.698;4.886;2023-03-03T09:39:49;27.20;;;13.63;;
1479;SDS011;732;51.698;4.886;2023-03-03T09:42:23;32.90;;;14.40;;
1479;SDS011;732;51.698;4.886;2023-03-03T09:45:25;27.70;;;13.37;;
1479;SDS011;732;51.698;4.886;2023-03-03T09:48:27;35.23;;;16.27;;
1479;SDS011;732;51.698;4.886;2023-03-03T09:51:30;32.23;;;14.50;;
1479;SDS011;732;51.698;4.886;2023-03-03T09:54:32;27.10;;;12.57;;
1479;SDS011;732;51.698;4.886;2023-03-03T09:57:20;29.63;;;13.60;;
1479;SDS011;732;51.698;4.886;2023-03-03T10:00:02;29.80;;;13.77;;
1479;SDS011;732;51.698;4.886;2023-03-03T10:02:49;32.33;;;14.37;;
1479;SDS011;732;51.698;4.886;2023-03-03T10:05:35;33.20;;;14.70;;
1479;SDS011;732;51.698;4.886;2023-03-03T10:08:17;29.07;;;13.67;;
1479;SDS011;732;51.698;4.886;2023-03-03T10:11:03;31.70;;;15.00;;
1479;SDS011;732;51.698;4.886;2023-03-03T10:13:49;31.30;;;13.37;;
1479;SDS011;732;51.698;4.886;2023-03-03T10:19:28;23.57;;;11.97;;
1479;SDS011;732;51.698;4.886;2023-03-03T10:24:58;31.13;;;12.10;;
1479;SDS011;732;51.698;4.886;2023-03-03T10:27:49;33.87;;;13.53;;
1479;SDS011;732;51.698;4.886;2023-03-03T10:30:47;26.43;;;12.80;;
1479;SDS011;732;51.698;4.886;2023-03-03T10:33:39;22.27;;;10.93;;
1479;SDS011;732;51.698;4.886;2023-03-03T10:36:23;22.47;;;11.63;;
1479;SDS011;732;51.698;4.886;2023-03-03T10:39:20;28.90;;;12.30;;
1479;SDS011;732;51.698;4.886;2023-03-03T10:42:24;19.93;;;10.40;;
1479;SDS011;732;51.698;4.886;2023-03-03T10:45:11;18.33;;;9.27;;
1479;SDS011;732;51.698;4.886;2023-03-03T10:48:09;20.50;;;9.63;;
1479;SDS011;732;51.698;4.886;2023-03-03T10:51:07;15.33;;;8.27;;
1479;SDS011;732;51.698;4.886;2023-03-03T10:53:51;10.97;;;6.80;;
1479;SDS011;732;51.698;4.886;2023-03-03T10:56:38;19.60;;;7.90;;
1479;SDS011;732;51.698;4.886;2023-03-03T10:59:27;14.73;;;6.87;;
1479;SDS011;732;51.698;4.886;2023-03-03T11:02:16;11.07;;;6.70;;
1479;SDS011;732;51.698;4.886;2023-03-03T11:05:03;17.30;;;8.40;;
1479;SDS011;732;51.698;4.886;2023-03-03T11:07:56;19.33;;;6.60;;
1479;SDS011;732;51.698;4.886;2023-03-03T11:10:34;13.00;;;6.90;;
1479;SDS011;732;51.698;4.886;2023-03-03T11:13:25;16.00;;;7.03;;
1479;SDS011;732;51.698;4.886;2023-03-03T11:16:13;12.37;;;6.80;;
1479;SDS011;732;51.698;4.886;2023-03-03T11:19:01;13.07;;;7.03;;
1479;SDS011;732;51.698;4.886;2023-03-03T11:21:44;10.90;;;6.30;;
1479;SDS011;732;51.698;4.886;2023-03-03T11:24:24;12.00;;;6.70;;
1479;SDS011;732;51.698;4.886;2023-03-03T11:27:21;11.30;;;5.93;;
1479;SDS011;732;51.698;4.886;2023-03-03T11:30:42;11.53;;;6.23;;
1479;SDS011;732;51.698;4.886;2023-03-03T11:33:29;12.73;;;6.83;;
1479;SDS011;732;51.698;4.886;2023-03-03T11:36:08;10.43;;;6.87;;
1479;SDS011;732;51.698;4.886;2023-03-03T11:38:47;12.10;;;6.13;;
1479;SDS011;732;51.698;4.886;2023-03-03T11:41:28;9.87;;;5.63;;
1479;SDS011;732;51.698;4.886;2023-03-03T11:44:02;14.57;;;6.60;;
1479;SDS011;732;51.698;4.886;2023-03-03T11:46:45;13.20;;;6.63;;
1479;SDS011;732;51.698;4.886;2023-03-03T11:49:18;9.40;;;6.20;;
1479;SDS011;732;51.698;4.886;2023-03-03T11:51:54;10.83;;;6.00;;
1479;SDS011;732;51.698;4.886;2023-03-03T11:54:33;12.23;;;6.30;;
1479;SDS011;732;51.698;4.886;2023-03-03T11:57:11;15.33;;;6.70;;
1479;SDS011;732;51.698;4.886;2023-03-03T11:59:47;13.43;;;5.70;;
1479;SDS011;732;51.698;4.886;2023-03-03T12:02:46;10.90;;;5.80;;
1479;SDS011;732;51.698;4.886;2023-03-03T12:05:32;10.17;;;6.47;;
1479;SDS011;732;51.698;4.886;2023-03-03T12:08:15;11.63;;;6.50;;
1479;SDS011;732;51.698;4.886;2023-03-03T12:11:00;8.17;;;5.47;;
1479;SDS011;732;51.698;4.886;2023-03-03T12:13:37;12.33;;;6.13;;
1479;SDS011;732;51.698;4.886;2023-03-03T12:16:21;8.67;;;5.20;;
1479;SDS011;732;51.698;4.886;2023-03-03T12:19:16;8.33;;;5.40;;
1479;SDS011;732;51.698;4.886;2023-03-03T12:22:02;8.93;;;5.20;;
1479;SDS011;732;51.698;4.886;2023-03-03T12:24:46;7.87;;;5.30;;
1479;SDS011;732;51.698;4.886;2023-03-03T12:27:33;8.60;;;5.50;;
1479;SDS011;732;51.698;4.886;2023-03-03T12:30:11;9.07;;;5.97;;
1479;SDS011;732;51.698;4.886;2023-03-03T12:32:56;9.13;;;5.80;;
1479;SDS011;732;51.698;4.886;2023-03-03T12:35:41;10.77;;;5.70;;
1479;SDS011;732;51.698;4.886;2023-03-03T12:38:21;8.90;;;5.33;;
1479;SDS011;732;51.698;4.886;2023-03-03T12:41:04;8.20;;;5.03;;
1479;SDS011;732;51.698;4.886;2023-03-03T12:43:43;9.40;;;4.57;;
1479;SDS011;732;51.698;4.886;2023-03-03T12:46:24;8.30;;;5.00;;
1479;SDS011;732;51.698;4.886;2023-03-03T12:49:06;7.70;;;4.80;;
1479;SDS011;732;51.698;4.886;2023-03-03T12:51:39;6.70;;;4.53;;
1479;SDS011;732;51.698;4.886;2023-03-03T12:54:26;8.23;;;5.40;;
1479;SDS011;732;51.698;4.886;2023-03-03T12:57:18;7.57;;;4.53;;
1479;SDS011;732;51.698;4.886;2023-03-03T13:02:56;6.97;;;5.53;;
1479;SDS011;732;51.698;4.886;2023-03-03T13:05:33;7.13;;;4.63;;
1479;SDS011;732;51.698;4.886;2023-03-03T13:08:29;7.50;;;5.70;;
1479;SDS011;732;51.698;4.886;2023-03-03T13:11:19;7.40;;;4.60;;
1479;SDS011;732;51.698;4.886;2023-03-03T13:14:10;6.27;;;4.87;;
1479;SDS011;732;51.698;4.886;2023-03-03T13:16:55;8.00;;;4.80;;
1479;SDS011;732;51.698;4.886;2023-03-03T13:19:36;9.53;;;5.63;;
1479;SDS011;732;51.698;4.886;2023-03-03T13:22:09;6.40;;;4.63;;
1479;SDS011;732;51.698;4.886;2023-03-03T13:24:48;8.80;;;4.70;;
1479;SDS011;732;51.698;4.886;2023-03-03T13:27:24;8.93;;;4.83;;
1479;SDS011;732;51.698;4.886;2023-03-03T13:30:00;6.30;;;4.03;;
1479;SDS011;732;51.698;4.886;2023-03-03T13:32:40;6.97;;;4.50;;
1479;SDS011;732;51.698;4.886;2023-03-03T13:35:18;6.90;;;4.77;;
1479;SDS011;732;51.698;4.886;2023-03-03T13:37:58;6.20;;;4.33;;
1479;SDS011;732;51.698;4.886;2023-03-03T13:40:36;6.70;;;3.47;;
1479;SDS011;732;51.698;4.886;2023-03-03T13:43:12;5.47;;;3.77;;
1479;SDS011;732;51.698;4.886;2023-03-03T13:45:50;8.17;;;3.63;;
1479;SDS011;732;51.698;4.886;2023-03-03T13:48:35;8.10;;;4.13;;
1479;SDS011;732;51.698;4.886;2023-03-03T13:51:18;5.50;;;3.27;;
1479;SDS011;732;51.698;4.886;2023-03-03T13:53:58;5.13;;;2.87;;
1479;SDS011;732;51.698;4.886;2023-03-03T13:56:42;7.93;;;3.67;;
1479;SDS011;732;51.698;4.886;2023-03-03T13:59:28;4.63;;;2.50;;
1479;SDS011;732;51.698;4.886;2023-03-03T14:02:13;4.80;;;2.60;;
1479;SDS011;732;51.698;4.886;2023-03-03T14:04:59;6.20;;;2.80;;
1479;SDS011;732;51.698;4.886;2023-03-03T14:07:38;3.43;;;2.30;;
1479;SDS011;732;51.698;4.886;2023-03-03T14:10:15;5.60;;;2.70;;
1479;SDS011;732;51.698;4.886;2023-03-03T14:12:57;4.93;;;3.33;;
1479;SDS011;732;51.698;4.886;2023-03-03T14:15:32;4.03;;;2.60;;
1479;SDS011;732;51.698;4.886;2023-03-03T14:18:17;5.40;;;2.50;;
1479;SDS011;732;51.698;4.886;2023-03-03T14:20:57;4.40;;;2.57;;
1479;SDS011;732;51.698;4.886;2023-03-03T14:23:31;4.47;;;2.67;;
1479;SDS011;732;51.698;4.886;2023-03-03T14:26:14;5.50;;;2.60;;
1479;SDS011;732;51.698;4.886;2023-03-03T14:28:44;5.70;;;2.77;;
1479;SDS011;732;51.698;4.886;2023-03-03T14:31:17;4.97;;;2.73;;
1479;SDS011;732;51.698;4.886;2023-03-03T14:33:56;7.40;;;2.87;;
1479;SDS011;732;51.698;4.886;2023-03-03T14:36:28;5.13;;;2.30;;
1479;SDS011;732;51.698;4.886;2023-03-03T14:39:00;5.63;;;2.30;;
1479;SDS011;732;51.698;4.886;2023-03-03T14:41:37;2.67;;;1.90;;
1479;SDS011;732;51.698;4.886;2023-03-03T14:44:25;7.70;;;2.30;;
1479;SDS011;732;51.698;4.886;2023-03-03T14:47:00;3.33;;;2.13;;
1479;SDS011;732;51.698;4.886;2023-03-03T14:49:48;4.83;;;2.03;;
1479;SDS011;732;51.698;4.886;2023-03-03T14:52:19;5.00;;;2.70;;
1479;SDS011;732;51.698;4.886;2023-03-03T14:54:52;3.63;;;2.53;;
1479;SDS011;732;51.698;4.886;2023-03-03T14:57:37;3.43;;;2.57;;
1479;SDS011;732;51.698;4.886;2023-03-03T15:00:30;3.10;;;1.90;;
1479;SDS011;732;51.698;4.886;2023-03-03T15:03:04;3.40;;;2.20;;
1479;SDS011;732;51.698;4.886;2023-03-03T15:05:50;4.50;;;2.13;;
1479;SDS011;732;51.698;4.886;2023-03-03T15:08:22;3.20;;;1.80;;
1479;SDS011;732;51.698;4.886;2023-03-03T15:11:10;4.50;;;2.13;;
1479;SDS011;732;51.698;4.886;2023-03-03T15:13:46;5.40;;;2.33;;
1479;SDS011;732;51.698;4.886;2023-03-03T15:16:17;3.47;;;1.67;;
1479;SDS011;732;51.698;4.886;2023-03-03T15:18:55;2.97;;;1.80;;
1479;SDS011;732;51.698;4.886;2023-03-03T15:22:03;2.47;;;1.90;;
1479;SDS011;732;51.698;4.886;2023-03-03T15:24:43;2.10;;;1.90;;
1479;SDS011;732;51.698;4.886;2023-03-03T15:27:24;3.10;;;2.30;;
1479;SDS011;732;51.698;4.886;2023-03-03T15:30:01;2.37;;;2.17;;
1479;SDS011;732;51.698;4.886;2023-03-03T15:32:44;4.80;;;2.30;;
1479;SDS011;732;51.698;4.886;2023-03-03T15:35:22;5.23;;;2.90;;
1479;SDS011;732;51.698;4.886;2023-03-03T15:38:13;2.80;;;2.03;;
1479;SDS011;732;51.698;4.886;2023-03-03T15:40:58;1.97;;;1.77;;
1479;SDS011;732;51.698;4.886;2023-03-03T15:43:42;5.70;;;2.43;;
1479;SDS011;732;51.698;4.886;2023-03-03T15:46:25;2.33;;;2.00;;
1479;SDS011;732;51.698;4.886;2023-03-03T15:49:06;3.60;;;2.60;;
1479;SDS011;732;51.698;4.886;2023-03-03T15:51:53;6.17;;;3.00;;
1479;SDS011;732;51.698;4.886;2023-03-03T15:54:48;3.40;;;3.10;;
1479;SDS011;732;51.698;4.886;2023-03-03T15:57:31;3.27;;;2.67;;
1479;SDS011;732;51.698;4.886;2023-03-03T16:03:18;4.40;;;2.20;;
1479;SDS011;732;51.698;4.886;2023-03-03T16:05:53;2.17;;;1.97;;
1479;SDS011;732;51.698;4.886;2023-03-03T16:08:28;2.60;;;2.27;;
1479;SDS011;732;51.698;4.886;2023-03-03T16:11:09;6.17;;;2.50;;
1479;SDS011;732;51.698;4.886;2023-03-03T16:13:51;3.83;;;2.40;;
1479;SDS011;732;51.698;4.886;2023-03-03T16:16:34;2.63;;;1.93;;
1479;SDS011;732;51.698;4.886;2023-03-03T16:19:17;3.53;;;2.70;;
1479;SDS011;732;51.698;4.886;2023-03-03T16:22:02;3.40;;;2.43;;